sensor_id;sensor_type;location;lat;lon;timestamp;pressure;altitude;pressure_sealevel;temperature;humidity
40982;BME280;26708;50.304;19.028;2023-04-04T00:00:43;99047.47;;;2.12;50.77
40982;BME280;26708;50.304;19.028;2023-04-04T00:02:48;99043.78;;;2.06;50.83
40982;BME280;26708;50.304;19.028;2023-04-04T00:04:55;99044.69;;;2.06;50.92
40982;BME280;26708;50.304;19.028;2023-04-04T00:07:00;99042.91;;;2.05;51.01
40982;BME280;26708;50.304;19.028;2023-04-04T00:09:05;99043.84;;;2.07;50.98
40982;BME280;26708;50.304;19.028;2023-04-04T00:11:10;99044.72;;;2.08;50.99
40982;BME280;26708;50.304;19.028;2023-04-04T00:13:15;99042.19;;;2.09;50.91
40982;BME280;26708;50.304;19.028;2023-04-04T00:15:20;99037.97;;;2.11;50.88
40982;BME280;26708;50.304;19.028;2023-04-04T00:17:24;99034.34;;;2.06;50.81
40982;BME280;26708;50.304;19.028;2023-04-04T00:19:30;99038.63;;;2.06;50.90
40982;BME280;26708;50.304;19.028;2023-04-04T00:21:37;99038.56;;;2.04;50.97
40982;BME280;26708;50.304;19.028;2023-04-04T00:23:41;99039.28;;;2.00;51.06
40982;BME280;26708;50.304;19.028;2023-04-04T00:25:48;99032.28;;;1.98;50.97
40982;BME280;26708;50.304;19.028;2023-04-04T00:27:53;99025.38;;;1.97;51.05
40982;BME280;26708;50.304;19.028;2023-04-04T00:30:00;99032.19;;;1.95;50.88
40982;BME280;26708;50.304;19.028;2023-04-04T00:32:05;99032.88;;;1.91;51.14
40982;BME280;26708;50.304;19.028;2023-04-04T00:34:10;99035.28;;;1.86;51.20
40982;BME280;26708;50.304;19.028;2023-04-04T00:36:14;99027.59;;;1.88;51.15
40982;BME280;26708;50.304;19.028;2023-04-04T00:38:22;99026.69;;;1.86;51.22
40982;BME280;26708;50.304;19.028;2023-04-04T00:40:29;99033.44;;;1.84;51.18
40982;BME280;26708;50.304;19.028;2023-04-04T00:42:34;99035.94;;;1.81;51.27
40982;BME280;26708;50.304;19.028;2023-04-04T00:44:39;98992.81;;;1.56;51.27
40982;BME280;26708;50.304;19.028;2023-04-04T00:46:44;98990.81;;;1.49;51.41
40982;BME280;26708;50.304;19.028;2023-04-04T00:48:51;99031.34;;;1.74;51.36
40982;BME280;26708;50.304;19.028;2023-04-04T00:50:58;99044.25;;;1.74;51.34
40982;BME280;26708;50.304;19.028;2023-04-04T00:53:02;99045.06;;;1.73;51.39
40982;BME280;26708;50.304;19.028;2023-04-04T00:55:10;99046.75;;;1.72;51.67
40982;BME280;26708;50.304;19.028;2023-04-04T00:57:15;99043.25;;;1.70;51.37
40982;BME280;26708;50.304;19.028;2023-04-04T00:59:21;99047.41;;;1.67;51.66
40982;BME280;26708;50.304;19.028;2023-04-04T01:01:26;99044.81;;;1.67;51.43
40982;BME280;26708;50.304;19.028;2023-04-04T01:03:32;99050.78;;;1.66;51.54
40982;BME280;26708;50.304;19.028;2023-04-04T01:05:39;99050.69;;;1.63;51.64
40982;BME280;26708;50.304;19.028;2023-04-04T01:07:44;99048.97;;;1.63;51.62
40982;BME280;26708;50.304;19.028;2023-04-04T01:09:50;99046.53;;;1.66;51.67
40982;BME280;26708;50.304;19.028;2023-04-04T01:11:58;99039.53;;;1.64;51.45
40982;BME280;26708;50.304;19.028;2023-04-04T01:14:05;99046.47;;;1.65;51.61
40982;BME280;26708;50.304;19.028;2023-04-04T01:16:10;99031.81;;;1.64;51.66
40982;BME280;26708;50.304;19.028;2023-04-04T01:18:19;99040.38;;;1.63;51.50
40982;BME280;26708;50.304;19.028;2023-04-04T01:20:29;99041.22;;;1.63;51.69
40982;BME280;26708;50.304;19.028;2023-04-04T01:22:43;98996.25;;;1.35;51.54
40982;BME280;26708;50.304;19.028;2023-04-04T01:24:55;99036.06;;;1.63;51.97
40982;BME280;26708;50.304;19.028;2023-04-04T01:27:06;99016.72;;;1.52;51.75
40982;BME280;26708;50.304;19.028;2023-04-04T01:29:17;99043.94;;;1.66;51.50
40982;BME280;26708;50.304;19.028;2023-04-04T01:31:27;99045.56;;;1.64;51.46
40982;BME280;26708;50.304;19.028;2023-04-04T01:33:44;99047.94;;;1.58;51.51
40982;BME280;26708;50.304;19.028;2023-04-04T01:36:02;99040.75;;;1.51;51.64
40982;BME280;26708;50.304;19.028;2023-04-04T01:38:22;99047.41;;;1.46;51.67
40982;BME280;26708;50.304;19.028;2023-04-04T01:40:34;98943.59;;;0.87;51.95
40982;BME280;26708;50.304;19.028;2023-04-04T01:42:46;99036.56;;;1.33;52.06
40982;BME280;26708;50.304;19.028;2023-04-04T01:44:53;98980.91;;;0.97;51.90
40982;BME280;26708;50.304;19.028;2023-04-04T01:47:05;99052.66;;;1.27;52.20
40982;BME280;26708;50.304;19.028;2023-04-04T01:49:10;99053.41;;;1.25;52.57
40982;BME280;26708;50.304;19.028;2023-04-04T01:51:15;99061.06;;;1.23;52.35
40982;BME280;26708;50.304;19.028;2023-04-04T01:53:21;99049.75;;;1.20;52.33
40982;BME280;26708;50.304;19.028;2023-04-04T01:55:26;98951.63;;;0.54;52.36
40982;BME280;26708;50.304;19.028;2023-04-04T01:57:30;99056.34;;;1.13;52.66
40982;BME280;26708;50.304;19.028;2023-04-04T01:59:42;98854.44;;;-0.11;52.41
40982;BME280;26708;50.304;19.028;2023-04-04T02:01:47;98952.84;;;0.43;52.40
40982;BME280;26708;50.304;19.028;2023-04-04T02:03:51;99062.41;;;0.95;52.89
40982;BME280;26708;50.304;19.028;2023-04-04T02:05:57;99058.13;;;0.95;53.08
40982;BME280;26708;50.304;19.028;2023-04-04T02:08:02;99062.34;;;0.93;52.97
40982;BME280;26708;50.304;19.028;2023-04-04T02:10:19;99045.59;;;0.84;53.13
40982;BME280;26708;50.304;19.028;2023-04-04T02:12:24;99067.69;;;0.98;52.98
40982;BME280;26708;50.304;19.028;2023-04-04T02:14:29;99065.84;;;0.95;52.79
40982;BME280;26708;50.304;19.028;2023-04-04T02:16:36;99069.25;;;0.94;53.00
40982;BME280;26708;50.304;19.028;2023-04-04T02:18:41;99072.56;;;0.92;53.00
40982;BME280;26708;50.304;19.028;2023-04-04T02:20:46;99031.94;;;0.66;53.14
40982;BME280;26708;50.304;19.028;2023-04-04T02:22:57;99036.47;;;0.71;53.11
40982;BME280;26708;50.304;19.028;2023-04-04T02:25:03;99015.41;;;0.61;53.04
40982;BME280;26708;50.304;19.028;2023-04-04T02:27:08;99042.84;;;0.79;53.09
40982;BME280;26708;50.304;19.028;2023-04-04T02:29:13;99078.19;;;1.02;52.91
40982;BME280;26708;50.304;19.028;2023-04-04T02:31:19;99073.00;;;1.01;52.73
40982;BME280;26708;50.304;19.028;2023-04-04T02:33:26;99069.59;;;1.02;52.80
40982;BME280;26708;50.304;19.028;2023-04-04T02:35:32;98973.53;;;0.44;52.62
40982;BME280;26708;50.304;19.028;2023-04-04T02:37:38;99018.75;;;0.58;52.70
40982;BME280;26708;50.304;19.028;2023-04-04T02:39:44;99070.78;;;0.89;52.65
40982;BME280;26708;50.304;19.028;2023-04-04T02:41:50;99068.94;;;0.87;52.85
40982;BME280;26708;50.304;19.028;2023-04-04T02:43:55;99009.81;;;0.50;52.88
40982;BME280;26708;50.304;19.028;2023-04-04T02:46:00;99062.63;;;0.80;52.92
40982;BME280;26708;50.304;19.028;2023-04-04T02:48:05;98988.16;;;0.27;52.83
40982;BME280;26708;50.304;19.028;2023-04-04T02:50:21;99070.91;;;0.73;53.07
40982;BME280;26708;50.304;19.028;2023-04-04T02:52:31;99045.56;;;0.63;53.15
40982;BME280;26708;50.304;19.028;2023-04-04T02:54:42;99050.06;;;0.67;53.26
40982;BME280;26708;50.304;19.028;2023-04-04T02:56:57;99027.31;;;0.57;53.31
40982;BME280;26708;50.304;19.028;2023-04-04T02:59:02;99073.53;;;0.75;52.96
40982;BME280;26708;50.304;19.028;2023-04-04T03:01:06;99067.31;;;0.70;53.24
40982;BME280;26708;50.304;19.028;2023-04-04T03:03:14;99030.97;;;0.43;53.40
40982;BME280;26708;50.304;19.028;2023-04-04T03:05:24;99052.88;;;0.54;53.42
40982;BME280;26708;50.304;19.028;2023-04-04T03:07:29;99069.56;;;0.62;53.46
40982;BME280;26708;50.304;19.028;2023-04-04T03:09:35;99065.22;;;0.61;53.49
40982;BME280;26708;50.304;19.028;2023-04-04T03:11:39;99074.03;;;0.66;53.31
40982;BME280;26708;50.304;19.028;2023-04-04T03:13:44;99074.28;;;0.72;53.60
40982;BME280;26708;50.304;19.028;2023-04-04T03:15:58;99068.47;;;0.76;53.29
40982;BME280;26708;50.304;19.028;2023-04-04T03:18:10;99050.66;;;0.62;53.15
40982;BME280;26708;50.304;19.028;2023-04-04T03:20:15;99067.66;;;0.77;53.19
40982;BME280;26708;50.304;19.028;2023-04-04T03:22:23;99070.50;;;0.83;53.13
40982;BME280;26708;50.304;19.028;2023-04-04T03:24:29;99063.59;;;0.82;52.99
40982;BME280;26708;50.304;19.028;2023-04-04T03:26:33;99068.78;;;0.84;53.00
40982;BME280;26708;50.304;19.028;2023-04-04T03:28:39;99067.22;;;0.87;52.91
40982;BME280;26708;50.304;19.028;2023-04-04T03:30:45;99060.19;;;0.83;52.74
40982;BME280;26708;50.304;19.028;2023-04-04T03:32:50;99063.50;;;0.81;53.00
40982;BME280;26708;50.304;19.028;2023-04-04T03:34:56;99063.41;;;0.78;52.92
40982;BME280;26708;50.304;19.028;2023-04-04T03:37:01;99027.16;;;0.54;52.90
40982;BME280;26708;50.304;19.028;2023-04-04T03:39:08;99068.94;;;0.68;53.08
40982;BME280;26708;50.304;19.028;2023-04-04T03:41:13;99054.25;;;0.65;53.34
40982;BME280;26708;50.304;19.028;2023-04-04T03:43:18;99062.72;;;0.63;53.16
40982;BME280;26708;50.304;19.028;2023-04-04T03:45:22;99060.81;;;0.59;53.27
40982;BME280;26708;50.304;19.028;2023-04-04T03:47:28;99028.09;;;0.37;53.52
40982;BME280;26708;50.304;19.028;2023-04-04T03:49:34;99031.78;;;0.42;53.48
40982;BME280;26708;50.304;19.028;2023-04-04T03:51:38;99064.94;;;0.55;53.61
40982;BME280;26708;50.304;19.028;2023-04-04T03:53:44;99060.34;;;0.48;53.47
40982;BME280;26708;50.304;19.028;2023-04-04T03:55:52;99044.09;;;0.30;53.80
40982;BME280;26708;50.304;19.028;2023-04-04T03:57:58;99060.00;;;0.41;54.06
40982;BME280;26708;50.304;19.028;2023-04-04T04:00:05;99059.09;;;0.40;54.06
40982;BME280;26708;50.304;19.028;2023-04-04T04:02:14;99028.22;;;0.22;54.05
40982;BME280;26708;50.304;19.028;2023-04-04T04:04:20;99049.59;;;0.38;54.13
40982;BME280;26708;50.304;19.028;2023-04-04T04:06:25;99054.44;;;0.32;54.25
40982;BME280;26708;50.304;19.028;2023-04-04T04:08:30;99050.84;;;0.28;54.38
40982;BME280;26708;50.304;19.028;2023-04-04T04:10:35;99056.06;;;0.30;54.52
40982;BME280;26708;50.304;19.028;2023-04-04T04:12:43;99004.94;;;-0.00;54.35
40982;BME280;26708;50.304;19.028;2023-04-04T04:14:48;99051.69;;;0.28;54.70
40982;BME280;26708;50.304;19.028;2023-04-04T04:16:53;99056.22;;;0.33;54.50
40982;BME280;26708;50.304;19.028;2023-04-04T04:18:58;99054.44;;;0.32;54.62
40982;BME280;26708;50.304;19.028;2023-04-04T04:21:12;99048.41;;;0.31;54.39
40982;BME280;26708;50.304;19.028;2023-04-04T04:23:17;99025.38;;;0.16;54.54
40982;BME280;26708;50.304;19.028;2023-04-04T04:25:25;99045.72;;;0.28;54.77
40982;BME280;26708;50.304;19.028;2023-04-04T04:27:54;99046.66;;;0.30;54.64
40982;BME280;26708;50.304;19.028;2023-04-04T04:30:00;99046.03;;;0.36;54.73
40982;BME280;26708;50.304;19.028;2023-04-04T04:32:14;99020.19;;;0.33;54.57
40982;BME280;26708;50.304;19.028;2023-04-04T04:34:23;99022.25;;;0.41;54.27
40982;BME280;26708;50.304;19.028;2023-04-04T04:36:33;99047.47;;;0.48;53.96
40982;BME280;26708;50.304;19.028;2023-04-04T04:39:10;99033.78;;;0.49;54.15
40982;BME280;26708;50.304;19.028;2023-04-04T04:41:27;98992.31;;;0.23;54.08
40982;BME280;26708;50.304;19.028;2023-04-04T04:43:38;99017.28;;;0.44;53.74
40982;BME280;26708;50.304;19.028;2023-04-04T04:45:43;99035.97;;;0.59;53.65
40982;BME280;26708;50.304;19.028;2023-04-04T04:47:48;99021.88;;;0.51;53.84
40982;BME280;26708;50.304;19.028;2023-04-04T04:49:54;99041.38;;;0.65;53.59
40982;BME280;26708;50.304;19.028;2023-04-04T04:52:09;98994.84;;;0.42;53.57
40982;BME280;26708;50.304;19.028;2023-04-04T04:54:17;99048.53;;;0.72;53.38
40982;BME280;26708;50.304;19.028;2023-04-04T04:56:27;99050.44;;;0.76;53.37
40982;BME280;26708;50.304;19.028;2023-04-04T04:58:43;99030.31;;;0.68;53.18
40982;BME280;26708;50.304;19.028;2023-04-04T05:00:56;99049.06;;;0.84;52.97
40982;BME280;26708;50.304;19.028;2023-04-04T05:03:09;99050.84;;;0.85;52.75
40982;BME280;26708;50.304;19.028;2023-04-04T05:05:23;99048.13;;;0.82;52.72
40982;BME280;26708;50.304;19.028;2023-04-04T05:07:32;99051.66;;;0.84;52.83
40982;BME280;26708;50.304;19.028;2023-04-04T05:09:38;99046.38;;;0.81;52.75
40982;BME280;26708;50.304;19.028;2023-04-04T05:11:45;99035.09;;;0.79;52.36
40982;BME280;26708;50.304;19.028;2023-04-04T05:13:54;99014.56;;;0.60;52.10
40982;BME280;26708;50.304;19.028;2023-04-04T05:16:01;99059.56;;;0.89;52.35
40982;BME280;26708;50.304;19.028;2023-04-04T05:18:08;99059.44;;;0.86;52.24
40982;BME280;26708;50.304;19.028;2023-04-04T05:20:12;99059.50;;;0.87;52.42
40982;BME280;26708;50.304;19.028;2023-04-04T05:22:20;99064.78;;;0.90;52.00
40982;BME280;26708;50.304;19.028;2023-04-04T05:24:27;99046.69;;;0.89;52.08
40982;BME280;26708;50.304;19.028;2023-04-04T05:26:34;99063.44;;;0.98;51.89
40982;BME280;26708;50.304;19.028;2023-04-04T05:28:39;99020.91;;;0.68;51.72
40982;BME280;26708;50.304;19.028;2023-04-04T05:30:46;99063.97;;;0.91;51.45
40982;BME280;26708;50.304;19.028;2023-04-04T05:32:55;99065.41;;;0.85;51.93
40982;BME280;26708;50.304;19.028;2023-04-04T05:35:03;99019.63;;;0.59;51.87
40982;BME280;26708;50.304;19.028;2023-04-04T05:37:11;99058.78;;;0.71;51.57
40982;BME280;26708;50.304;19.028;2023-04-04T05:39:19;99065.34;;;0.64;51.93
40982;BME280;26708;50.304;19.028;2023-04-04T05:41:35;99058.31;;;0.60;51.90
40982;BME280;26708;50.304;19.028;2023-04-04T05:43:48;99066.72;;;0.75;52.43
40982;BME280;26708;50.304;19.028;2023-04-04T05:45:59;99023.00;;;0.58;51.78
40982;BME280;26708;50.304;19.028;2023-04-04T05:48:10;99036.34;;;0.68;51.43
40982;BME280;26708;50.304;19.028;2023-04-04T05:50:24;99044.59;;;0.80;51.71
40982;BME280;26708;50.304;19.028;2023-04-04T05:52:34;99060.66;;;0.94;51.29
40982;BME280;26708;50.304;19.028;2023-04-04T05:54:39;99053.78;;;0.94;51.68
40982;BME280;26708;50.304;19.028;2023-04-04T05:56:50;99022.88;;;0.94;51.20
40982;BME280;26708;50.304;19.028;2023-04-04T05:59:12;99068.31;;;1.32;50.53
40982;BME280;26708;50.304;19.028;2023-04-04T06:01:30;99061.59;;;1.35;50.06
40982;BME280;26708;50.304;19.028;2023-04-04T06:03:43;99066.09;;;1.41;49.85
40982;BME280;26708;50.304;19.028;2023-04-04T06:05:54;99064.56;;;1.46;49.52
40982;BME280;26708;50.304;19.028;2023-04-04T06:07:58;99063.19;;;1.54;49.56
40982;BME280;26708;50.304;19.028;2023-04-04T06:10:05;99068.34;;;1.54;49.08
40982;BME280;26708;50.304;19.028;2023-04-04T06:12:12;99057.72;;;1.46;48.91
40982;BME280;26708;50.304;19.028;2023-04-04T06:14:17;99049.19;;;1.47;49.01
40982;BME280;26708;50.304;19.028;2023-04-04T06:16:22;99062.13;;;1.69;48.78
40982;BME280;26708;50.304;19.028;2023-04-04T06:18:30;99046.34;;;1.84;48.61
40982;BME280;26708;50.304;19.028;2023-04-04T06:20:34;99069.25;;;2.19;47.92
40982;BME280;26708;50.304;19.028;2023-04-04T06:22:40;99033.03;;;2.17;46.70
40982;BME280;26708;50.304;19.028;2023-04-04T06:24:45;99051.09;;;2.39;46.12
40982;BME280;26708;50.304;19.028;2023-04-04T06:26:49;99058.25;;;2.68;46.57
40982;BME280;26708;50.304;19.028;2023-04-04T06:28:58;99056.91;;;3.03;45.86
40982;BME280;26708;50.304;19.028;2023-04-04T06:31:07;99056.31;;;3.36;44.33
40982;BME280;26708;50.304;19.028;2023-04-04T06:33:11;99046.16;;;3.67;44.60
40982;BME280;26708;50.304;19.028;2023-04-04T06:35:24;99037.66;;;3.98;43.22
40982;BME280;26708;50.304;19.028;2023-04-04T06:37:33;99046.47;;;4.32;41.91
40982;BME280;26708;50.304;19.028;2023-04-04T06:39:46;99040.00;;;4.46;41.36
40982;BME280;26708;50.304;19.028;2023-04-04T06:41:57;99049.13;;;4.63;40.65
40982;BME280;26708;50.304;19.028;2023-04-04T06:44:04;98967.56;;;4.19;39.74
40982;BME280;26708;50.304;19.028;2023-04-04T06:46:09;99041.22;;;4.58;39.60
40982;BME280;26708;50.304;19.028;2023-04-04T06:48:14;99048.16;;;4.59;39.76
40982;BME280;26708;50.304;19.028;2023-04-04T06:50:19;99037.78;;;4.59;39.52
40982;BME280;26708;50.304;19.028;2023-04-04T06:52:26;99008.81;;;4.43;39.15
40982;BME280;26708;50.304;19.028;2023-04-04T06:54:32;99045.03;;;4.71;39.46
40982;BME280;26708;50.304;19.028;2023-04-04T06:56:36;99039.25;;;4.81;39.88
40982;BME280;26708;50.304;19.028;2023-04-04T06:58:41;99046.22;;;5.13;39.75
40982;BME280;26708;50.304;19.028;2023-04-04T07:00:46;99041.81;;;5.43;39.07
40982;BME280;26708;50.304;19.028;2023-04-04T07:02:56;99044.16;;;5.66;38.34
40982;BME280;26708;50.304;19.028;2023-04-04T07:05:02;99043.22;;;5.63;36.75
40982;BME280;26708;50.304;19.028;2023-04-04T07:07:08;99040.34;;;5.52;37.30
40982;BME280;26708;50.304;19.028;2023-04-04T07:09:15;99030.53;;;5.41;37.29
40982;BME280;26708;50.304;19.028;2023-04-04T07:11:19;99025.41;;;5.42;37.37
40982;BME280;26708;50.304;19.028;2023-04-04T07:13:25;99044.53;;;5.47;37.65
40982;BME280;26708;50.304;19.028;2023-04-04T07:15:30;99004.44;;;5.35;38.07
40982;BME280;26708;50.304;19.028;2023-04-04T07:17:36;99044.06;;;5.63;36.56
40982;BME280;26708;50.304;19.028;2023-04-04T07:19:42;99043.00;;;5.54;36.27
40982;BME280;26708;50.304;19.028;2023-04-04T07:21:46;99038.00;;;5.29;36.30
40982;BME280;26708;50.304;19.028;2023-04-04T07:23:51;99042.16;;;5.22;37.00
40982;BME280;26708;50.304;19.028;2023-04-04T07:25:59;99041.31;;;5.23;36.51
40982;BME280;26708;50.304;19.028;2023-04-04T07:28:03;98998.16;;;4.93;36.52
40982;BME280;26708;50.304;19.028;2023-04-04T07:30:09;99039.88;;;5.02;36.54
40982;BME280;26708;50.304;19.028;2023-04-04T07:32:16;99057.13;;;5.00;36.76
40982;BME280;26708;50.304;19.028;2023-04-04T07:34:21;99047.66;;;5.02;37.25
40982;BME280;26708;50.304;19.028;2023-04-04T07:36:25;99040.06;;;5.08;37.07
40982;BME280;26708;50.304;19.028;2023-04-04T07:38:31;99042.13;;;5.21;36.63
40982;BME280;26708;50.304;19.028;2023-04-04T07:40:36;99034.09;;;5.12;36.51
40982;BME280;26708;50.304;19.028;2023-04-04T07:42:45;98992.88;;;4.90;36.55
40982;BME280;26708;50.304;19.028;2023-04-04T07:44:52;99004.69;;;5.11;36.83
40982;BME280;26708;50.304;19.028;2023-04-04T07:46:56;99043.50;;;5.41;36.32
40982;BME280;26708;50.304;19.028;2023-04-04T07:49:01;99030.19;;;5.27;35.86
40982;BME280;26708;50.304;19.028;2023-04-04T07:51:06;99049.75;;;5.15;36.06
40982;BME280;26708;50.304;19.028;2023-04-04T07:53:11;99003.69;;;4.75;36.25
40982;BME280;26708;50.304;19.028;2023-04-04T07:55:16;99048.25;;;4.92;36.83
40982;BME280;26708;50.304;19.028;2023-04-04T07:57:22;99015.41;;;4.92;37.51
40982;BME280;26708;50.304;19.028;2023-04-04T07:59:29;99035.78;;;5.10;36.54
40982;BME280;26708;50.304;19.028;2023-04-04T08:01:33;99044.28;;;5.04;36.51
40982;BME280;26708;50.304;19.028;2023-04-04T08:03:38;99030.13;;;4.93;36.50
40982;BME280;26708;50.304;19.028;2023-04-04T08:05:43;98981.75;;;4.63;36.98
40982;BME280;26708;50.304;19.028;2023-04-04T08:07:47;99014.13;;;4.78;36.89
40982;BME280;26708;50.304;19.028;2023-04-04T08:09:53;99041.28;;;4.89;36.83
40982;BME280;26708;50.304;19.028;2023-04-04T08:11:57;99035.69;;;4.76;37.31
40982;BME280;26708;50.304;19.028;2023-04-04T08:14:01;99027.84;;;4.74;37.83
40982;BME280;26708;50.304;19.028;2023-04-04T08:16:09;98968.19;;;4.42;37.74
40982;BME280;26708;50.304;19.028;2023-04-04T08:18:14;99027.06;;;4.77;37.55
40982;BME280;26708;50.304;19.028;2023-04-04T08:20:18;99016.94;;;4.86;37.09
40982;BME280;26708;50.304;19.028;2023-04-04T08:22:24;99022.22;;;4.89;36.63
40982;BME280;26708;50.304;19.028;2023-04-04T08:24:28;99001.88;;;4.73;35.89
40982;BME280;26708;50.304;19.028;2023-04-04T08:26:33;99040.03;;;4.77;36.33
40982;BME280;26708;50.304;19.028;2023-04-04T08:28:38;99031.97;;;4.68;36.62
40982;BME280;26708;50.304;19.028;2023-04-04T08:30:43;99034.38;;;4.60;36.41
40982;BME280;26708;50.304;19.028;2023-04-04T08:32:50;99026.91;;;4.41;36.78
40982;BME280;26708;50.304;19.028;2023-04-04T08:34:55;99030.09;;;4.33;36.56
40982;BME280;26708;50.304;19.028;2023-04-04T08:36:59;99027.94;;;4.18;36.57
40982;BME280;26708;50.304;19.028;2023-04-04T08:39:04;99032.81;;;4.09;36.72
40982;BME280;26708;50.304;19.028;2023-04-04T08:41:10;99021.34;;;4.00;36.30
40982;BME280;26708;50.304;19.028;2023-04-04T08:43:15;99022.38;;;4.06;36.69
40982;BME280;26708;50.304;19.028;2023-04-04T08:45:23;99020.03;;;4.14;37.12
40982;BME280;26708;50.304;19.028;2023-04-04T08:47:33;99022.84;;;4.21;35.37
40982;BME280;26708;50.304;19.028;2023-04-04T08:49:45;99026.28;;;4.20;35.73
40982;BME280;26708;50.304;19.028;2023-04-04T08:51:55;99025.53;;;4.24;35.80
40982;BME280;26708;50.304;19.028;2023-04-04T08:54:02;98971.44;;;4.05;35.42
40982;BME280;26708;50.304;19.028;2023-04-04T08:56:07;99016.94;;;4.25;34.70
40982;BME280;26708;50.304;19.028;2023-04-04T08:58:12;99028.81;;;4.19;34.62
40982;BME280;26708;50.304;19.028;2023-04-04T09:00:18;99027.75;;;4.12;34.88
40982;BME280;26708;50.304;19.028;2023-04-04T09:02:28;99012.94;;;4.08;34.92
40982;BME280;26708;50.304;19.028;2023-04-04T09:04:38;99017.47;;;4.14;35.06
40982;BME280;26708;50.304;19.028;2023-04-04T09:06:47;98958.63;;;3.81;35.43
40982;BME280;26708;50.304;19.028;2023-04-04T09:08:53;99004.53;;;4.15;35.89
40982;BME280;26708;50.304;19.028;2023-04-04T09:11:02;98989.50;;;4.02;35.09
40982;BME280;26708;50.304;19.028;2023-04-04T09:13:08;99008.72;;;4.10;34.64
40982;BME280;26708;50.304;19.028;2023-04-04T09:15:14;98974.69;;;3.98;35.34
40982;BME280;26708;50.304;19.028;2023-04-04T09:17:18;99002.84;;;4.16;35.28
40982;BME280;26708;50.304;19.028;2023-04-04T09:19:24;98996.88;;;4.18;35.51
40982;BME280;26708;50.304;19.028;2023-04-04T09:21:32;98992.59;;;4.20;36.21
40982;BME280;26708;50.304;19.028;2023-04-04T09:23:39;98976.03;;;4.14;37.15
40982;BME280;26708;50.304;19.028;2023-04-04T09:25:48;99001.69;;;4.36;37.57
40982;BME280;26708;50.304;19.028;2023-04-04T09:27:53;98951.00;;;4.14;37.52
40982;BME280;26708;50.304;19.028;2023-04-04T09:30:01;99000.38;;;4.50;37.67
40982;BME280;26708;50.304;19.028;2023-04-04T09:32:07;99004.16;;;4.61;37.85
40982;BME280;26708;50.304;19.028;2023-04-04T09:34:14;98950.16;;;4.45;37.34
40982;BME280;26708;50.304;19.028;2023-04-04T09:36:21;99007.06;;;4.73;36.58
40982;BME280;26708;50.304;19.028;2023-04-04T09:38:29;98993.09;;;4.68;36.81
40982;BME280;26708;50.304;19.028;2023-04-04T09:40:37;99001.16;;;4.77;36.77
40982;BME280;26708;50.304;19.028;2023-04-04T09:42:44;98931.00;;;4.40;35.68
40982;BME280;26708;50.304;19.028;2023-04-04T09:44:52;99000.25;;;4.76;35.32
40982;BME280;26708;50.304;19.028;2023-04-04T09:49:31;98998.06;;;4.90;34.86
40982;BME280;26708;50.304;19.028;2023-04-04T09:51:37;98994.78;;;4.97;34.24
40982;BME280;26708;50.304;19.028;2023-04-04T09:53:46;98950.88;;;4.72;33.83
40982;BME280;26708;50.304;19.028;2023-04-04T09:55:55;99006.06;;;4.99;34.04
40982;BME280;26708;50.304;19.028;2023-04-04T09:58:11;98995.97;;;5.09;34.54
40982;BME280;26708;50.304;19.028;2023-04-04T10:00:19;98988.06;;;5.03;34.58
40982;BME280;26708;50.304;19.028;2023-04-04T10:02:23;98987.19;;;5.03;34.35
40982;BME280;26708;50.304;19.028;2023-04-04T10:04:30;98995.06;;;5.07;34.54
40982;BME280;26708;50.304;19.028;2023-04-04T10:06:38;98994.41;;;5.14;34.20
40982;BME280;26708;50.304;19.028;2023-04-04T10:08:42;98910.25;;;4.71;33.55
40982;BME280;26708;50.304;19.028;2023-04-04T10:10:48;98997.94;;;5.18;33.52
40982;BME280;26708;50.304;19.028;2023-04-04T10:12:56;98999.69;;;5.19;34.19
40982;BME280;26708;50.304;19.028;2023-04-04T10:15:01;98997.22;;;5.23;34.83
40982;BME280;26708;50.304;19.028;2023-04-04T10:17:07;99003.97;;;5.17;34.50
40982;BME280;26708;50.304;19.028;2023-04-04T10:19:15;98990.78;;;5.09;34.76
40982;BME280;26708;50.304;19.028;2023-04-04T10:21:21;98978.38;;;4.96;34.84
40982;BME280;26708;50.304;19.028;2023-04-04T10:23:28;98989.84;;;5.06;35.13
40982;BME280;26708;50.304;19.028;2023-04-04T10:25:34;98986.28;;;5.01;35.10
40982;BME280;26708;50.304;19.028;2023-04-04T10:27:38;98966.94;;;4.90;34.29
40982;BME280;26708;50.304;19.028;2023-04-04T10:29:46;98956.97;;;4.74;33.25
40982;BME280;26708;50.304;19.028;2023-04-04T10:31:58;98964.75;;;4.74;33.38
40982;BME280;26708;50.304;19.028;2023-04-04T10:34:09;98986.63;;;4.83;33.88
40982;BME280;26708;50.304;19.028;2023-04-04T10:36:22;98986.44;;;4.76;33.58
40982;BME280;26708;50.304;19.028;2023-04-04T10:38:31;98984.78;;;4.79;33.39
40982;BME280;26708;50.304;19.028;2023-04-04T10:40:46;98943.59;;;4.57;33.65
40982;BME280;26708;50.304;19.028;2023-04-04T10:42:55;98995.13;;;4.79;34.30
40982;BME280;26708;50.304;19.028;2023-04-04T10:45:10;98982.88;;;4.72;34.96
40982;BME280;26708;50.304;19.028;2023-04-04T10:47:20;98987.34;;;4.78;35.87
40982;BME280;26708;50.304;19.028;2023-04-04T10:49:27;98911.97;;;4.38;35.99
40982;BME280;26708;50.304;19.028;2023-04-04T10:51:33;98983.50;;;4.95;36.26
40982;BME280;26708;50.304;19.028;2023-04-04T10:53:40;98995.13;;;5.10;35.59
40982;BME280;26708;50.304;19.028;2023-04-04T10:55:46;98969.09;;;5.06;35.28
40982;BME280;26708;50.304;19.028;2023-04-04T10:57:52;98908.50;;;4.70;34.42
40982;BME280;26708;50.304;19.028;2023-04-04T11:00:01;98987.56;;;5.18;34.59
40982;BME280;26708;50.304;19.028;2023-04-04T11:02:13;98996.38;;;5.24;34.60
40982;BME280;26708;50.304;19.028;2023-04-04T11:04:19;98989.59;;;5.29;34.58
40982;BME280;26708;50.304;19.028;2023-04-04T11:09:47;98984.69;;;5.41;33.61
40982;BME280;26708;50.304;19.028;2023-04-04T11:12:08;98984.56;;;5.35;34.02
40982;BME280;26708;50.304;19.028;2023-04-04T11:14:15;98981.03;;;5.33;33.88
40982;BME280;26708;50.304;19.028;2023-04-04T11:16:45;98972.56;;;5.06;34.29
40982;BME280;26708;50.304;19.028;2023-04-04T11:18:58;98989.16;;;5.13;34.89
40982;BME280;26708;50.304;19.028;2023-04-04T11:21:05;98979.00;;;5.20;35.04